Aviation Digital Data Service (ADDS)

Output produced by TAFs form (1816 UTC 25 April 2015)
found at http://aviationweather.gov/adds/tafs/
 
KRIL 251741Z 2518/2618 25008G15KT P6SM VCSH SCT030 OVC050 
     TEMPO 2518/2519 5SM -RA BR OVC030 
     FM252100 27008KT P6SM VCTS SCT030 BKN080CB 
     TEMPO 2521/2524 VRB15G30KT 5SM -TSRA SCT030 BKN040CB 
     FM260700 VRB03KT 5SM -RA BKN030 
     FM261100 07006KT P6SM VCSH BKN050 
     FM261500 28010KT 5SM -RA BKN030